Time;durP1;ratioP1;P1;durP2;ratioP2;P2;SDS_P1;SDS_P2;PMS_P1;PMS_P2;Temp;Humidity;BMP_temperature;BMP_pressure;BME280_temperature;BME280_humidity;BME280_pressure;Samples;Min_cycle;Max_cycle;Signal;HPM_P1;HPM_P2
2023/07/20 00:01:47;;;;;;;5.88;3.60;;;17.00;99.90;;;;;;4995306;28;20038;-58
2023/07/20 00:04:13;;;;;;;4.07;3.78;;;17.00;99.90;;;;;;4996917;28;20037;-55
2023/07/20 00:06:40;;;;;;;4.97;4.00;;;17.00;99.90;;;;;;4996676;28;20491;-57
2023/07/20 00:09:06;;;;;;;5.63;3.80;;;17.00;99.90;;;;;;4996737;28;20053;-57
2023/07/20 00:11:31;;;;;;;5.07;4.18;;;17.00;99.90;;;;;;4997670;28;20017;-56
2023/07/20 00:13:57;;;;;;;4.10;3.75;;;16.90;99.90;;;;;;4997710;28;20037;-57
2023/07/20 00:16:23;;;;;;;4.70;4.30;;;17.00;99.90;;;;;;4995280;28;20433;-56
2023/07/20 00:18:48;;;;;;;4.65;3.88;;;16.90;99.90;;;;;;4996537;28;20410;-58
2023/07/20 00:21:14;;;;;;;6.68;3.90;;;17.00;99.90;;;;;;4995126;28;20030;-58
2023/07/20 00:23:39;;;;;;;4.80;3.67;;;16.90;99.90;;;;;;4995178;28;20115;-58
2023/07/20 00:26:05;;;;;;;5.63;4.38;;;16.90;99.90;;;;;;4998461;28;20037;-57
2023/07/20 00:28:31;;;;;;;5.70;4.32;;;16.80;99.90;;;;;;4996352;28;20161;-59
2023/07/20 00:30:56;;;;;;;5.82;4.30;;;16.70;99.90;;;;;;4996929;28;20057;-58
2023/07/20 00:33:22;;;;;;;4.65;4.18;;;16.70;99.90;;;;;;4999158;28;20030;-57
2023/07/20 00:35:47;;;;;;;5.38;4.85;;;16.60;99.90;;;;;;5000026;28;20033;-59
2023/07/20 00:38:13;;;;;;;4.85;4.45;;;16.50;99.90;;;;;;4998460;28;20101;-58
2023/07/20 00:40:40;;;;;;;5.55;4.93;;;16.50;99.90;;;;;;4998209;28;20041;-57
2023/07/20 00:43:07;;;;;;;4.43;4.03;;;16.50;99.90;;;;;;4998870;28;20022;-56
2023/07/20 00:45:34;;;;;;;5.35;4.93;;;16.50;99.90;;;;;;4996782;28;20032;-57
2023/07/20 00:48:01;;;;;;;5.38;4.88;;;16.60;99.90;;;;;;4996251;28;20034;-56
2023/07/20 00:50:28;;;;;;;5.25;4.55;;;16.60;99.90;;;;;;4996962;28;20034;-55
2023/07/20 00:52:56;;;;;;;4.65;4.25;;;16.60;99.90;;;;;;4995942;28;20026;-57
2023/07/20 00:55:23;;;;;;;5.05;4.55;;;16.70;99.90;;;;;;4996250;28;20034;-57
2023/07/20 00:57:50;;;;;;;5.07;4.10;;;16.70;99.90;;;;;;4996647;28;20045;-59
2023/07/20 01:00:16;;;;;;;7.53;4.70;;;16.70;99.90;;;;;;4994168;28;20030;-56
2023/07/20 01:02:42;;;;;;;7.28;5.65;;;16.70;99.90;;;;;;4994595;28;20156;-57
2023/07/20 01:05:08;;;;;;;5.68;4.78;;;16.70;99.90;;;;;;4999842;28;20772;-57
2023/07/20 01:07:43;;;;;;;5.80;5.22;;;16.60;99.90;;;;;;4997517;28;20062;-57
2023/07/20 01:10:41;;;;;;;5.65;4.40;;;16.60;99.90;;;;;;4995669;28;20682;-57
2023/07/20 01:13:09;;;;;;;7.68;5.45;;;16.50;99.90;;;;;;4996305;28;20058;-57
2023/07/20 01:15:35;;;;;;;5.35;4.78;;;16.50;99.90;;;;;;4998630;28;20026;-57
2023/07/20 01:18:04;;;;;;;6.22;5.63;;;16.50;99.90;;;;;;4994254;28;20503;-56
2023/07/20 01:20:33;;;;;;;5.63;4.90;;;16.50;99.90;;;;;;4996191;28;20034;-58
2023/07/20 01:23:11;;;;;;;5.57;4.78;;;16.50;99.90;;;;;;4995571;28;20026;-57
2023/07/20 01:26:03;;;;;;;6.60;5.32;;;16.50;99.90;;;;;;4997640;28;20363;-58
2023/07/20 01:28:32;;;;;;;5.55;5.05;;;16.40;99.90;;;;;;4992755;28;20037;-58
2023/07/20 01:31:27;;;;;;;5.13;4.57;;;16.40;99.90;;;;;;4995249;28;20117;-56
2023/07/20 01:33:56;;;;;;;5.53;5.03;;;16.40;99.90;;;;;;4996657;28;20387;-57
2023/07/20 01:36:24;;;;;;;6.60;5.20;;;16.30;99.90;;;;;;4994075;28;20038;-56
2023/07/20 01:38:52;;;;;;;8.88;4.43;;;16.30;99.90;;;;;;4996419;28;20034;-59
2023/07/20 01:41:18;;;;;;;7.05;4.47;;;16.20;99.90;;;;;;4996382;28;20030;-57
2023/07/20 01:43:44;;;;;;;5.68;4.47;;;16.10;99.90;;;;;;4998666;28;20022;-58
2023/07/20 01:46:10;;;;;;;5.65;4.32;;;16.00;99.90;;;;;;4995525;28;20026;-57
2023/07/20 01:48:35;;;;;;;7.47;4.72;;;16.10;99.90;;;;;;4995677;28;20062;-57
2023/07/20 01:51:01;;;;;;;5.13;4.63;;;16.00;99.90;;;;;;4994681;28;20109;-57
2023/07/20 01:53:27;;;;;;;4.60;4.20;;;15.90;99.90;;;;;;4997652;28;20037;-56
2023/07/20 01:55:54;;;;;;;7.05;4.63;;;15.90;99.90;;;;;;4994296;28;20027;-56
2023/07/20 01:58:20;;;;;;;7.05;5.18;;;15.90;99.90;;;;;;4998668;28;20121;-59
2023/07/20 02:00:45;;;;;;;5.65;5.22;;;15.90;99.90;;;;;;4998173;28;20108;-57
2023/07/20 02:03:14;;;;;;;5.53;4.93;;;15.90;99.90;;;;;;4993739;28;20042;-57
2023/07/20 02:05:42;;;;;;;5.47;4.97;;;15.90;99.90;;;;;;4994814;28;20113;-58
2023/07/20 02:08:09;;;;;;;6.15;5.22;;;15.90;99.90;;;;;;4993360;28;20025;-56
2023/07/20 02:10:35;;;;;;;5.53;5.03;;;15.90;99.90;;;;;;4995215;28;20035;-57
2023/07/20 02:13:01;;;;;;;5.47;4.97;;;15.80;99.90;;;;;;4995744;28;20117;-58
2023/07/20 02:15:27;;;;;;;6.68;5.53;;;15.80;99.90;;;;;;4996745;28;20034;-57
2023/07/20 02:17:53;;;;;;;6.22;5.18;;;15.80;99.90;;;;;;4996547;28;20026;-58
2023/07/20 02:20:19;;;;;;;7.13;5.40;;;15.80;99.90;;;;;;4997195;28;20121;-57
2023/07/20 02:22:45;;;;;;;8.85;5.20;;;15.80;99.90;;;;;;4999880;28;20029;-58
2023/07/20 02:25:11;;;;;;;8.13;5.40;;;15.70;99.90;;;;;;4999796;28;20052;-55
2023/07/20 02:27:37;;;;;;;5.95;5.35;;;15.70;99.90;;;;;;4998117;28;20041;-56
2023/07/20 02:30:03;;;;;;;5.45;4.95;;;15.60;99.90;;;;;;4996222;28;20042;-57
2023/07/20 02:32:30;;;;;;;5.80;4.97;;;15.60;99.90;;;;;;4996772;28;20022;-58
2023/07/20 02:34:56;;;;;;;7.75;5.35;;;15.60;99.90;;;;;;4997859;28;20030;-57
2023/07/20 02:37:21;;;;;;;8.13;5.15;;;15.50;99.90;;;;;;4999917;28;20033;-56
2023/07/20 02:39:47;;;;;;;6.63;5.90;;;15.50;99.90;;;;;;4999097;28;20034;-56
2023/07/20 02:42:13;;;;;;;5.78;5.28;;;15.50;99.90;;;;;;5000362;28;20029;-56
2023/07/20 02:44:38;;;;;;;6.50;5.78;;;15.40;99.90;;;;;;5000980;28;20045;-57
2023/07/20 02:47:04;;;;;;;6.38;5.15;;;15.30;99.90;;;;;;5000175;28;20061;-58
2023/07/20 02:49:30;;;;;;;5.78;5.28;;;15.30;99.90;;;;;;4998950;28;20490;-57
2023/07/20 02:51:56;;;;;;;6.05;5.63;;;15.30;99.90;;;;;;4998647;28;20033;-56
2023/07/20 02:54:22;;;;;;;6.10;5.38;;;15.30;99.90;;;;;;4998021;28;20506;-57
2023/07/20 02:56:47;;;;;;;6.53;5.88;;;15.30;99.90;;;;;;5000158;28;20034;-58
2023/07/20 02:59:13;;;;;;;11.10;5.40;;;15.40;99.90;;;;;;4998648;28;20091;-57
2023/07/20 03:01:38;;;;;;;7.80;5.90;;;15.40;99.90;;;;;;5000792;28;20033;-58
2023/07/20 03:04:04;;;;;;;7.40;5.35;;;15.40;99.90;;;;;;5001633;28;20560;-59
2023/07/20 03:06:30;;;;;;;6.53;5.85;;;15.30;99.90;;;;;;4998170;28;20026;-56
2023/07/20 03:08:56;;;;;;;6.43;5.78;;;15.30;99.90;;;;;;4999470;28;20117;-57
2023/07/20 03:11:22;;;;;;;9.50;5.50;;;15.30;99.90;;;;;;4999214;28;20026;-57
2023/07/20 03:13:48;;;;;;;5.30;4.80;;;15.40;99.90;;;;;;4999686;28;20441;-57
2023/07/20 03:16:15;;;;;;;8.50;5.82;;;15.40;99.90;;;;;;4998908;28;20022;-57
2023/07/20 03:18:41;;;;;;;8.05;5.78;;;15.40;99.90;;;;;;4998287;28;20045;-57
2023/07/20 03:21:08;;;;;;;5.63;5.13;;;15.40;99.90;;;;;;4998489;28;20449;-56
2023/07/20 03:23:34;;;;;;;6.65;5.00;;;15.40;99.90;;;;;;4997167;28;20455;-58
2023/07/20 03:26:00;;;;;;;5.70;5.20;;;15.40;99.90;;;;;;4995250;28;20023;-58
2023/07/20 03:28:26;;;;;;;7.28;6.18;;;15.50;99.90;;;;;;4997617;28;20076;-58
2023/07/20 03:30:58;;;;;;;7.07;5.50;;;15.50;99.90;;;;;;4999573;28;20076;-57
2023/07/20 03:33:29;;;;;;;6.57;5.93;;;15.40;99.90;;;;;;4997940;28;20072;-57
2023/07/20 03:35:55;;;;;;;5.60;5.03;;;15.40;99.90;;;;;;4995267;28;20061;-57
2023/07/20 03:38:22;;;;;;;5.50;5.00;;;15.40;99.90;;;;;;5000170;28;20030;-59
2023/07/20 03:40:56;;;;;;;6.57;5.85;;;15.40;99.90;;;;;;4996193;28;20062;-59
2023/07/20 03:43:23;;;;;;;6.40;5.75;;;15.40;99.90;;;;;;4996983;28;20138;-59
2023/07/20 03:45:49;;;;;;;6.32;5.57;;;15.40;99.90;;;;;;4998733;28;20033;-59
2023/07/20 03:48:21;;;;;;;6.10;5.60;;;15.30;99.90;;;;;;4998268;28;20034;-57
2023/07/20 03:50:48;;;;;;;6.70;5.25;;;15.30;99.90;;;;;;4998100;28;20035;-57
2023/07/20 03:53:14;;;;;;;6.68;5.38;;;15.20;99.90;;;;;;4998787;28;20026;-57
2023/07/20 03:55:47;;;;;;;4.95;4.55;;;15.10;99.90;;;;;;4996647;28;20057;-56
2023/07/20 03:58:14;;;;;;;5.68;5.18;;;15.00;99.90;;;;;;4994516;28;20525;-55
2023/07/20 04:00:40;;;;;;;5.65;4.93;;;14.90;99.90;;;;;;4996340;28;20030;-57
2023/07/20 04:03:06;;;;;;;7.05;5.22;;;14.90;99.90;;;;;;4999488;28;20030;-57
2023/07/20 04:05:31;;;;;;;6.60;6.00;;;14.80;99.90;;;;;;4997176;28;20019;-56
2023/07/20 04:07:58;;;;;;;5.78;4.50;;;14.80;99.90;;;;;;4996453;28;20493;-57
2023/07/20 04:10:24;;;;;;;5.78;5.28;;;14.80;99.90;;;;;;4999349;28;20125;-57
2023/07/20 04:12:49;;;;;;;7.43;5.65;;;14.80;99.90;;;;;;4997759;28;20177;-59
2023/07/20 04:15:15;;;;;;;8.45;6.07;;;14.80;99.90;;;;;;4996529;28;20443;-59
2023/07/20 04:17:41;;;;;;;6.13;5.53;;;14.80;99.90;;;;;;4995005;28;20456;-59
2023/07/20 04:20:08;;;;;;;6.65;6.05;;;14.80;99.90;;;;;;4996280;28;20122;-57
2023/07/20 04:22:34;;;;;;;6.57;5.68;;;14.80;99.90;;;;;;4994391;28;20041;-58
2023/07/20 04:25:00;;;;;;;6.55;6.03;;;14.90;99.90;;;;;;4997156;28;20030;-59
2023/07/20 04:27:26;;;;;;;6.00;5.50;;;14.90;99.90;;;;;;4996392;28;20486;-57
2023/07/20 04:29:51;;;;;;;7.22;6.55;;;15.00;99.90;;;;;;5004173;28;20038;-58
2023/07/20 04:32:17;;;;;;;6.40;5.90;;;15.00;99.90;;;;;;4982202;28;20076;-57
2023/07/20 04:34:43;;;;;;;7.75;5.75;;;15.10;99.90;;;;;;5003776;28;20034;-59
2023/07/20 04:37:08;;;;;;;6.55;5.95;;;15.10;99.90;;;;;;4996974;28;20596;-58
2023/07/20 04:39:34;;;;;;;6.97;6.38;;;15.20;99.90;;;;;;4998747;28;20105;-59
2023/07/20 04:42:00;;;;;;;7.05;6.35;;;15.20;99.90;;;;;;4995175;28;20035;-58
2023/07/20 04:44:25;;;;;;;7.55;6.88;;;15.30;99.90;;;;;;4995858;28;20022;-59
2023/07/20 04:46:51;;;;;;;7.43;6.72;;;15.40;99.90;;;;;;4992521;28;20057;-58
2023/07/20 04:49:17;;;;;;;7.63;6.82;;;15.40;99.90;;;;;;4998193;28;20023;-58
2023/07/20 04:51:42;;;;;;;7.63;6.88;;;15.50;99.90;;;;;;4992337;28;20390;-58
2023/07/20 04:54:08;;;;;;;10.27;7.25;;;15.50;99.90;;;;;;4996554;28;20438;-58
2023/07/20 04:56:34;;;;;;;7.35;6.75;;;15.60;99.90;;;;;;4996572;28;20018;-58
2023/07/20 04:58:59;;;;;;;7.18;6.40;;;15.60;99.90;;;;;;4995328;28;20496;-59
2023/07/20 05:01:26;;;;;;;7.50;6.40;;;15.60;99.90;;;;;;4996922;28;20062;-58
2023/07/20 05:03:52;;;;;;;7.00;6.35;;;15.60;99.90;;;;;;4992489;28;20101;-58
2023/07/20 05:06:18;;;;;;;7.15;6.55;;;15.60;99.90;;;;;;4992846;28;20041;-58
2023/07/20 05:08:44;;;;;;;7.18;6.47;;;15.60;99.90;;;;;;4996519;28;20038;-58
2023/07/20 05:11:10;;;;;;;9.73;6.20;;;15.60;99.90;;;;;;4991662;28;20030;-58
2023/07/20 05:13:37;;;;;;;15.07;6.70;;;15.70;99.90;;;;;;4996336;28;20393;-58
2023/07/20 05:16:02;;;;;;;8.35;6.38;;;15.80;99.90;;;;;;4979952;28;20034;-61
2023/07/20 05:18:28;;;;;;;7.88;7.07;;;15.80;99.90;;;;;;4993870;28;20089;-58
2023/07/20 05:20:55;;;;;;;7.97;7.07;;;15.80;99.90;;;;;;4997189;28;20033;-58
2023/07/20 05:23:20;;;;;;;7.63;7.03;;;15.90;99.90;;;;;;4997668;28;20375;-58
2023/07/20 05:25:46;;;;;;;7.80;6.82;;;15.90;99.90;;;;;;4998004;28;20066;-59
2023/07/20 05:28:12;;;;;;;7.10;6.60;;;16.00;99.90;;;;;;4996484;28;20050;-59
2023/07/20 05:30:38;;;;;;;8.82;7.70;;;16.00;99.90;;;;;;4997135;28;20037;-59
2023/07/20 05:33:03;;;;;;;8.30;7.57;;;16.10;99.90;;;;;;4994901;28;20507;-57
2023/07/20 05:35:29;;;;;;;7.63;6.93;;;16.20;99.90;;;;;;4998991;28;20491;-59
2023/07/20 05:37:55;;;;;;;8.88;8.18;;;16.30;99.90;;;;;;4998821;28;20026;-59
2023/07/20 05:40:21;;;;;;;8.50;7.68;;;16.30;99.90;;;;;;4996773;28;20033;-58
2023/07/20 05:42:48;;;;;;;8.93;8.02;;;16.40;99.90;;;;;;4996195;28;20613;-58
2023/07/20 05:45:14;;;;;;;8.93;8.23;;;16.50;99.90;;;;;;4994543;28;20513;-58
2023/07/20 05:47:41;;;;;;;8.57;7.78;;;16.50;99.90;;;;;;5003845;28;20084;-58
2023/07/20 05:50:07;;;;;;;8.25;7.03;;;16.60;99.90;;;;;;4996131;28;20046;-57
2023/07/20 05:52:33;;;;;;;7.28;6.55;;;16.70;99.90;;;;;;4995367;28;20069;-59
2023/07/20 05:54:58;;;;;;;9.90;6.43;;;16.80;99.90;;;;;;4997651;28;20068;-57
2023/07/20 05:57:24;;;;;;;7.07;5.38;;;16.80;99.90;;;;;;4998950;28;20041;-58
2023/07/20 05:59:50;;;;;;;5.93;5.43;;;17.00;99.90;;;;;;4999272;28;20030;-59
2023/07/20 06:02:16;;;;;;;7.22;5.68;;;17.00;99.90;;;;;;4998794;28;20030;-57
2023/07/20 06:04:42;;;;;;;6.20;5.28;;;17.10;99.90;;;;;;4998798;28;20038;-58
2023/07/20 06:07:08;;;;;;;7.15;5.20;;;17.10;99.90;;;;;;5000470;28;20026;-57
2023/07/20 06:09:34;;;;;;;11.80;5.20;;;17.20;99.90;;;;;;5001164;28;20062;-57
2023/07/20 06:12:00;;;;;;;5.90;5.40;;;17.30;99.90;;;;;;4998394;28;20415;-57
2023/07/20 06:14:25;;;;;;;5.82;5.00;;;17.40;99.90;;;;;;4998961;28;20060;-58
2023/07/20 06:16:51;;;;;;;7.07;4.78;;;17.50;99.90;;;;;;4999887;28;20030;-57
2023/07/20 06:19:17;;;;;;;5.78;5.18;;;17.50;99.90;;;;;;5000890;28;20400;-58
2023/07/20 06:21:43;;;;;;;6.57;4.95;;;17.60;99.90;;;;;;5000754;28;20205;-57
2023/07/20 06:24:08;;;;;;;7.97;4.57;;;17.70;99.90;;;;;;4996434;28;20084;-57
2023/07/20 06:26:40;;;;;;;4.95;4.03;;;17.70;99.90;;;;;;4998180;28;20030;-57
2023/07/20 06:29:06;;;;;;;4.72;4.20;;;17.80;99.90;;;;;;5001157;28;20035;-57
2023/07/20 06:31:35;;;;;;;5.45;4.38;;;17.90;99.90;;;;;;5000090;28;20048;-59
2023/07/20 06:34:01;;;;;;;3.65;3.33;;;18.00;99.90;;;;;;4999910;28;20030;-57
2023/07/20 06:36:27;;;;;;;3.17;2.88;;;18.10;99.90;;;;;;5000915;28;20056;-59
2023/07/20 06:38:53;;;;;;;3.38;3.03;;;18.30;99.90;;;;;;5002532;28;20081;-58
2023/07/20 06:41:19;;;;;;;6.32;3.17;;;18.40;99.90;;;;;;5001523;28;20022;-59
2023/07/20 06:43:45;;;;;;;7.40;3.20;;;18.40;99.90;;;;;;5000602;28;20315;-58
2023/07/20 06:46:11;;;;;;;3.90;3.08;;;18.50;99.90;;;;;;5005900;28;20120;-57
2023/07/20 06:48:36;;;;;;;3.90;2.67;;;18.50;99.90;;;;;;4998023;28;20129;-59
2023/07/20 06:51:02;;;;;;;3.92;3.25;;;18.60;99.90;;;;;;4997042;28;20034;-57
2023/07/20 06:53:31;;;;;;;3.58;2.80;;;18.60;99.90;;;;;;4998079;28;20037;-58
2023/07/20 06:55:57;;;;;;;5.93;2.60;;;18.70;99.90;;;;;;4998709;28;20022;-58
2023/07/20 06:58:24;;;;;;;4.57;2.92;;;18.70;99.90;;;;;;4998411;28;20835;-58
2023/07/20 07:00:49;;;;;;;4.65;3.20;;;18.80;99.90;;;;;;4984243;28;20030;-57
2023/07/20 07:03:15;;;;;;;6.70;3.47;;;18.80;99.90;;;;;;4997671;28;20037;-57
2023/07/20 07:05:41;;;;;;;3.78;2.63;;;18.80;99.90;;;;;;5004946;28;20197;-57
2023/07/20 07:08:07;;;;;;;6.53;3.55;;;18.90;99.90;;;;;;4999481;28;20037;-58
2023/07/20 07:10:35;;;;;;;5.53;3.30;;;19.00;99.90;;;;;;5002997;28;20027;-57
2023/07/20 07:13:01;;;;;;;3.97;3.47;;;19.00;99.90;;;;;;5004078;28;20463;-57
2023/07/20 07:15:27;;;;;;;4.40;3.53;;;19.10;99.90;;;;;;5002323;28;20038;-57
2023/07/20 07:17:53;;;;;;;16.52;3.80;;;19.30;99.90;;;;;;4998896;28;20038;-58
2023/07/20 07:20:18;;;;;;;5.07;3.10;;;19.40;99.90;;;;;;5001515;28;20088;-57
2023/07/20 07:22:45;;;;;;;4.47;2.50;;;19.60;99.90;;;;;;5002206;28;20030;-57
2023/07/20 07:25:10;;;;;;;3.63;2.30;;;19.80;99.90;;;;;;5001666;28;20033;-58
2023/07/20 07:27:36;;;;;;;3.75;2.50;;;19.90;99.90;;;;;;4997632;28;20038;-57
2023/07/20 07:30:03;;;;;;;4.10;2.20;;;20.00;99.90;;;;;;5001255;28;20041;-58
2023/07/20 07:32:29;;;;;;;2.90;1.92;;;20.10;99.90;;;;;;4998906;28;20050;-58
2023/07/20 07:34:55;;;;;;;6.03;2.78;;;20.20;99.90;;;;;;4997167;28;20019;-58
2023/07/20 07:37:21;;;;;;;12.43;2.70;;;20.40;99.90;;;;;;4997644;28;20077;-59
2023/07/20 07:39:46;;;;;;;4.15;2.95;;;20.50;99.90;;;;;;4996660;28;20375;-57
2023/07/20 07:42:12;;;;;;;4.13;2.05;;;20.40;99.90;;;;;;4994531;28;20046;-58
2023/07/20 07:44:38;;;;;;;4.28;2.03;;;20.40;99.90;;;;;;4994564;28;20025;-58
2023/07/20 07:47:04;;;;;;;3.00;1.80;;;20.40;99.90;;;;;;4999090;28;20022;-59
2023/07/20 07:49:31;;;;;;;2.85;1.92;;;20.30;99.90;;;;;;4996958;28;20045;-57
2023/07/20 07:51:57;;;;;;;4.03;2.05;;;20.30;99.90;;;;;;4998284;28;20030;-58
2023/07/20 07:54:22;;;;;;;3.22;1.95;;;20.30;99.90;;;;;;4999460;28;20034;-59
2023/07/20 07:56:48;;;;;;;4.15;1.60;;;20.30;99.90;;;;;;4998354;28;20455;-58
2023/07/20 07:59:13;;;;;;;2.88;2.00;;;20.30;99.90;;;;;;5000886;28;20506;-59
2023/07/20 08:01:39;;;;;;;2.55;1.70;;;20.30;99.90;;;;;;4999131;28;20117;-56
2023/07/20 08:04:05;;;;;;;4.40;1.65;;;20.40;99.90;;;;;;4996536;28;20214;-59
2023/07/20 08:06:31;;;;;;;2.42;1.50;;;20.50;99.90;;;;;;4998673;28;20022;-59
2023/07/20 08:08:57;;;;;;;2.75;1.52;;;20.70;99.90;;;;;;5000832;28;20026;-56
2023/07/20 08:11:24;;;;;;;1.83;1.52;;;20.90;99.90;;;;;;4997709;28;20026;-57
2023/07/20 08:13:49;;;;;;;2.00;1.48;;;21.00;99.90;;;;;;4997753;28;20030;-59
2023/07/20 08:16:15;;;;;;;2.60;1.85;;;21.10;99.90;;;;;;4996680;28;20037;-57
2023/07/20 08:18:40;;;;;;;2.38;1.63;;;21.00;99.90;;;;;;4994839;28;20044;-58
2023/07/20 08:21:06;;;;;;;1.83;1.10;;;20.90;99.90;;;;;;4997208;28;20042;-58
2023/07/20 08:23:32;;;;;;;3.15;1.40;;;20.90;99.90;;;;;;4999913;28;20036;-57
2023/07/20 08:25:57;;;;;;;2.35;1.20;;;21.00;99.90;;;;;;4998771;28;20029;-56
2023/07/20 08:28:23;;;;;;;2.15;1.38;;;21.20;99.90;;;;;;4995908;28;20053;-57
2023/07/20 08:30:49;;;;;;;2.45;1.30;;;21.40;99.90;;;;;;4993974;28;20065;-58
2023/07/20 08:33:18;;;;;;;3.05;1.23;;;21.40;99.90;;;;;;4999672;28;20049;-57
2023/07/20 08:35:43;;;;;;;1.63;1.02;;;21.50;99.90;;;;;;4998586;28;20038;-57
2023/07/20 08:38:09;;;;;;;3.97;1.30;;;21.50;98.70;;;;;;5001023;28;20034;-57
2023/07/20 08:40:41;;;;;;;2.65;1.23;;;21.50;99.70;;;;;;4998069;28;20046;-57
2023/07/20 08:43:07;;;;;;;2.83;1.08;;;21.40;96.60;;;;;;4997852;28;20030;-58
2023/07/20 08:45:33;;;;;;;1.23;1.00;;;21.40;96.40;;;;;;4997857;28;20045;-56
2023/07/20 08:48:02;;;;;;;2.60;1.00;;;21.50;97.80;;;;;;4991541;28;20081;-58
2023/07/20 08:50:30;;;;;;;2.35;1.20;;;21.60;98.70;;;;;;4995681;28;20025;-58
2023/07/20 08:52:58;;;;;;;2.70;1.10;;;21.60;97.80;;;;;;4993835;28;20018;-58
2023/07/20 08:55:28;;;;;;;2.42;1.60;;;21.60;93.70;;;;;;4998122;28;20049;-57
2023/07/20 08:57:55;;;;;;;2.22;1.40;;;21.60;97.10;;;;;;4998709;28;20034;-58
2023/07/20 09:00:22;;;;;;;1.65;1.02;;;21.70;99.90;;;;;;4996057;28;20657;-57
2023/07/20 09:02:50;;;;;;;2.88;1.30;;;21.90;93.30;;;;;;4998270;28;20502;-58
2023/07/20 09:05:16;;;;;;;2.67;1.20;;;21.90;88.30;;;;;;4998268;28;20031;-58
2023/07/20 09:07:42;;;;;;;1.50;1.23;;;21.80;88.30;;;;;;4996825;28;20044;-57
2023/07/20 09:10:08;;;;;;;1.92;1.10;;;21.80;89.20;;;;;;4994974;28;20031;-56
2023/07/20 09:12:39;;;;;;;1.60;1.23;;;21.70;87.70;;;;;;4998316;28;20026;-59
2023/07/20 09:15:06;;;;;;;1.38;1.20;;;21.70;90.10;;;;;;4996756;28;20188;-56
2023/07/20 09:17:32;;;;;;;3.63;1.50;;;21.50;90.10;;;;;;4994201;28;20032;-58
2023/07/20 09:19:58;;;;;;;5.43;1.60;;;21.30;91.00;;;;;;4998571;28;20046;-58
2023/07/20 09:22:32;;;;;;;2.17;1.40;;;21.30;92.20;;;;;;4993928;28;20042;-58
2023/07/20 09:24:58;;;;;;;15.77;1.60;;;21.50;92.30;;;;;;4998432;28;20042;-59
2023/07/20 09:27:38;;;;;;;1.77;1.30;;;21.70;93.10;;;;;;4994714;28;20046;-58
2023/07/20 09:30:07;;;;;;;2.53;1.40;;;22.10;87.50;;;;;;4997984;28;20113;-58
2023/07/20 09:32:40;;;;;;;1.33;1.23;;;22.50;83.40;;;;;;4996015;28;20030;-59
2023/07/20 09:35:06;;;;;;;1.70;1.10;;;22.70;76.90;;;;;;4995537;28;20021;-57
2023/07/20 09:37:33;;;;;;;1.83;1.10;;;22.80;76.50;;;;;;4994754;28;20050;-58
2023/07/20 09:39:59;;;;;;;2.33;1.00;;;23.00;75.30;;;;;;4997111;28;20503;-58
2023/07/20 09:42:27;;;;;;;1.33;1.00;;;23.30;72.40;;;;;;4997548;28;20095;-59
2023/07/20 09:44:53;;;;;;;1.27;1.00;;;23.60;69.90;;;;;;4997061;28;20038;-59
2023/07/20 09:47:23;;;;;;;4.25;1.17;;;23.90;69.20;;;;;;4998573;28;20085;-59
2023/07/20 09:49:48;;;;;;;1.10;1.00;;;23.90;66.30;;;;;;4996935;28;20043;-57
2023/07/20 09:52:15;;;;;;;1.92;1.13;;;23.60;65.60;;;;;;4980651;28;20072;-57
2023/07/20 09:54:44;;;;;;;1.05;0.95;;;23.20;68.40;;;;;;4978948;28;20031;-58
2023/07/20 09:57:13;;;;;;;2.65;1.20;;;23.00;71.70;;;;;;4976872;28;20039;-57
2023/07/20 09:59:39;;;;;;;1.58;1.40;;;22.90;72.00;;;;;;4974752;28;20042;-57
2023/07/20 10:02:13;;;;;;;1.70;1.20;;;22.90;72.50;;;;;;4975362;28;20022;-59
2023/07/20 10:04:40;;;;;;;4.95;1.70;;;23.00;74.50;;;;;;4978180;28;20030;-60
2023/07/20 10:07:10;;;;;;;1.95;1.30;;;23.00;72.70;;;;;;4971083;28;20034;-59
2023/07/20 10:09:39;;;;;;;2.10;1.20;;;23.00;74.70;;;;;;4976565;28;20038;-58
2023/07/20 10:12:06;;;;;;;1.85;1.40;;;23.00;72.30;;;;;;4973291;28;20082;-58
2023/07/20 10:14:35;;;;;;;1.75;1.08;;;22.90;71.20;;;;;;4975392;28;20445;-59
2023/07/20 10:17:03;;;;;;;2.13;1.55;;;22.80;73.90;;;;;;4978245;28;20035;-57
2023/07/20 10:19:38;;;;;;;1.92;1.45;;;22.90;74.20;;;;;;4977105;28;20113;-59
2023/07/20 10:22:11;;;;;;;4.25;1.10;;;23.30;73.00;;;;;;4978090;28;20034;-59
2023/07/20 10:24:39;;;;;;;3.70;1.42;;;23.90;72.00;;;;;;4978657;28;20031;-58
2023/07/20 10:27:05;;;;;;;2.75;1.20;;;24.30;69.50;;;;;;4978607;28;20507;-59
2023/07/20 10:29:31;;;;;;;1.52;1.20;;;24.60;66.30;;;;;;4977202;28;20101;-57
2023/07/20 10:31:57;;;;;;;2.65;1.30;;;24.40;64.30;;;;;;4978606;28;20422;-59
2023/07/20 10:34:24;;;;;;;1.40;1.00;;;24.20;65.20;;;;;;4977833;28;20515;-58
2023/07/20 10:36:54;;;;;;;3.47;1.20;;;23.90;65.00;;;;;;4974994;28;20861;-59
2023/07/20 10:39:31;;;;;;;2.30;1.37;;;23.70;65.80;;;;;;4978385;28;20039;-58
2023/07/20 10:42:07;;;;;;;1.65;1.20;;;23.60;65.80;;;;;;4979905;28;20026;-57
2023/07/20 10:44:33;;;;;;;2.30;1.20;;;23.50;66.90;;;;;;4978384;28;20073;-59
2023/07/20 10:47:08;;;;;;;1.92;1.20;;;23.40;66.20;;;;;;4980478;28;20023;-58
2023/07/20 10:49:35;;;;;;;3.15;1.42;;;23.40;68.10;;;;;;4980403;28;20081;-59
2023/07/20 10:52:04;;;;;;;2.00;1.13;;;23.30;69.00;;;;;;4981960;28;20522;-58
2023/07/20 10:54:30;;;;;;;1.60;1.50;;;23.30;69.30;;;;;;4978435;28;20106;-58
2023/07/20 10:56:57;;;;;;;1.85;1.30;;;23.20;67.70;;;;;;4977967;28;20150;-58
2023/07/20 10:59:23;;;;;;;1.27;1.17;;;23.00;66.70;;;;;;4982162;28;20141;-57
2023/07/20 11:01:49;;;;;;;1.98;1.10;;;22.80;67.50;;;;;;4978932;28;20113;-57
2023/07/20 11:04:19;;;;;;;2.75;1.30;;;22.70;68.40;;;;;;4981052;28;20418;-57
2023/07/20 11:06:46;;;;;;;1.35;1.25;;;22.60;70.00;;;;;;4979326;28;20035;-58
2023/07/20 11:09:16;;;;;;;48.03;4.20;;;22.90;70.40;;;;;;4980123;28;20026;-56
2023/07/20 11:11:47;;;;;;;6.05;1.65;;;23.20;69.60;;;;;;4978664;28;20030;-56
2023/07/20 11:14:25;;;;;;;1.85;1.48;;;23.60;69.40;;;;;;4979676;28;20029;-57
2023/07/20 11:16:52;;;;;;;1.55;1.10;;;23.90;67.00;;;;;;4977196;28;20053;-57
2023/07/20 11:19:20;;;;;;;3.47;1.17;;;23.90;65.00;;;;;;4981117;28;20035;-58
2023/07/20 11:21:50;;;;;;;2.85;1.20;;;23.70;64.20;;;;;;4978667;28;20031;-58
2023/07/20 11:24:16;;;;;;;3.67;1.10;;;23.50;64.50;;;;;;4979118;28;20030;-57
2023/07/20 11:26:46;;;;;;;1.75;1.20;;;23.50;65.10;;;;;;4976881;28;20038;-57
2023/07/20 11:29:13;;;;;;;3.05;1.20;;;23.40;64.80;;;;;;4977894;28;20018;-57
2023/07/20 11:31:40;;;;;;;3.22;1.30;;;23.40;64.90;;;;;;4980098;28;20027;-58
2023/07/20 11:34:09;;;;;;;6.60;1.65;;;23.30;66.40;;;;;;4977442;28;20046;-57
2023/07/20 11:36:35;;;;;;;3.58;1.50;;;23.30;66.20;;;;;;4977785;28;20085;-59
2023/07/20 11:39:01;;;;;;;2.90;1.50;;;23.40;67.40;;;;;;4978425;28;20054;-59
2023/07/20 11:41:27;;;;;;;2.92;1.35;;;23.50;67.80;;;;;;4975689;28;20030;-57
2023/07/20 11:43:54;;;;;;;1.60;1.10;;;24.10;65.90;;;;;;4979704;28;20197;-56
2023/07/20 11:46:19;;;;;;;1.45;1.10;;;24.50;62.60;;;;;;4978883;28;20446;-58
2023/07/20 11:48:45;;;;;;;2.00;1.30;;;25.00;63.00;;;;;;4978470;28;20046;-58
2023/07/20 11:51:17;;;;;;;1.30;1.20;;;25.30;60.60;;;;;;4978020;28;20038;-57
2023/07/20 11:53:44;;;;;;;1.77;1.40;;;25.20;60.60;;;;;;4974727;28;20030;-58
2023/07/20 11:56:10;;;;;;;7.47;1.50;;;25.00;59.80;;;;;;4977344;28;20023;-57
2023/07/20 11:58:41;;;;;;;1.63;1.10;;;24.50;61.10;;;;;;4979231;28;20030;-58
2023/07/20 12:01:06;;;;;;;2.13;1.48;;;24.30;61.60;;;;;;4979525;28;20019;-57
2023/07/20 12:03:32;;;;;;;3.47;1.48;;;24.20;61.80;;;;;;4978487;28;20084;-59
2023/07/20 12:06:06;;;;;;;2.50;1.40;;;24.20;62.90;;;;;;4977654;28;20089;-57
2023/07/20 12:08:33;;;;;;;1.85;1.20;;;24.20;63.40;;;;;;4975473;28;20108;-58
2023/07/20 12:10:58;;;;;;;1.67;1.30;;;24.20;63.90;;;;;;4980581;28;20026;-57
2023/07/20 12:13:34;;;;;;;3.30;1.27;;;24.20;63.50;;;;;;4979283;28;20035;-59
2023/07/20 12:16:08;;;;;;;2.08;1.40;;;24.10;63.50;;;;;;4976545;28;20035;-57
2023/07/20 12:18:37;;;;;;;2.78;1.30;;;24.10;63.70;;;;;;4979469;28;20148;-59
2023/07/20 12:21:04;;;;;;;2.30;1.58;;;24.10;63.40;;;;;;4978932;28;20032;-59
2023/07/20 12:23:36;;;;;;;1.40;1.30;;;24.10;63.10;;;;;;4978153;28;20026;-59
2023/07/20 12:26:03;;;;;;;1.83;1.30;;;24.20;61.50;;;;;;4977953;28;20044;-57
2023/07/20 12:28:29;;;;;;;2.13;1.17;;;24.30;63.30;;;;;;4979609;28;20036;-58
2023/07/20 12:30:58;;;;;;;3.33;1.33;;;24.40;63.30;;;;;;4976859;28;20537;-57
2023/07/20 12:33:24;;;;;;;2.22;1.40;;;24.40;62.30;;;;;;4977046;28;20039;-57
2023/07/20 12:35:51;;;;;;;3.40;1.50;;;24.50;61.60;;;;;;4976651;28;20038;-57
2023/07/20 12:38:16;;;;;;;2.40;1.45;;;24.50;62.60;;;;;;4976215;28;20022;-59
2023/07/20 12:40:42;;;;;;;1.25;1.15;;;24.80;61.50;;;;;;4973396;28;20030;-59
2023/07/20 12:43:08;;;;;;;1.52;1.30;;;25.10;60.20;;;;;;4973823;28;20058;-59
2023/07/20 12:45:34;;;;;;;2.83;1.40;;;25.10;60.40;;;;;;4977906;28;20436;-57